Time;durP1;ratioP1;P1;durP2;ratioP2;P2;SDS_P1;SDS_P2;PMS_P1;PMS_P2;Temp;Humidity;BMP_temperature;BMP_pressure;BME280_temperature;BME280_humidity;BME280_pressure;Samples;Min_cycle;Max_cycle;Signal;HPM_P1;HPM_P2
2022/07/07 00:00:09;;;;;;;2.90;2.17;;;20.60;38.50;;;;;;20831;6753;117263;-87
2022/07/07 00:02:44;;;;;;;5.68;2.70;;;20.30;38.80;;;;;;20579;6738;310388;-87
2022/07/07 00:05:21;;;;;;;3.10;2.10;;;20.20;39.50;;;;;;20944;6723;117571;-87
2022/07/07 00:07:56;;;;;;;2.23;2.00;;;20.20;39.50;;;;;;20878;6741;117132;-87
2022/07/07 00:10:42;;;;;;;3.10;2.43;;;19.90;39.80;;;;;;20736;6723;276675;-87
2022/07/07 00:13:07;;;;;;;2.10;2.00;;;20.00;40.10;;;;;;20904;6738;117213;-87
2022/07/07 00:15:45;;;;;;;2.60;2.40;;;20.00;40.00;;;;;;20882;6723;120003;-87
2022/07/07 00:18:19;;;;;;;2.90;2.50;;;19.90;39.90;;;;;;20676;6738;282641;-87
2022/07/07 00:20:55;;;;;;;2.60;2.40;;;19.90;39.80;;;;;;20870;6723;116983;-87
2022/07/07 00:23:30;;;;;;;2.40;2.30;;;19.90;39.80;;;;;;20688;6738;308215;-87
2022/07/07 00:26:06;;;;;;;3.03;2.10;;;20.00;39.50;;;;;;20841;6753;118466;-88
2022/07/07 00:28:41;;;;;;;3.05;2.70;;;19.90;39.50;;;;;;20651;6760;306446;-87
2022/07/07 00:31:17;;;;;;;2.80;2.20;;;20.10;39.20;;;;;;20838;6753;117398;-87
2022/07/07 00:33:53;;;;;;;4.50;2.20;;;19.90;39.30;;;;;;20894;6753;121085;-88
2022/07/07 00:36:28;;;;;;;4.37;2.62;;;19.60;39.80;;;;;;20759;6721;276396;-90
2022/07/07 00:39:04;;;;;;;2.53;2.33;;;19.80;40.20;;;;;;20709;6735;306397;-87
2022/07/07 00:41:41;;;;;;;2.90;2.60;;;20.10;39.60;;;;;;20591;6753;294757;-87
2022/07/07 00:44:16;;;;;;;2.47;2.27;;;20.30;39.40;;;;;;20781;6741;122616;-87
2022/07/07 00:46:54;;;;;;;3.13;2.53;;;20.10;39.50;;;;;;20880;6747;117418;-89
2022/07/07 00:49:27;;;;;;;3.27;2.20;;;19.70;39.90;;;;;;20845;6757;117150;-88
2022/07/07 00:52:03;;;;;;;2.80;2.33;;;19.40;40.30;;;;;;20495;6762;309133;-90
2022/07/07 00:54:40;;;;;;;2.90;2.23;;;19.60;40.10;;;;;;20911;6771;116386;-87
2022/07/07 00:57:15;;;;;;;2.93;2.40;;;19.50;40.20;;;;;;20794;6741;276556;-87
2022/07/07 00:59:51;;;;;;;2.63;2.43;;;19.70;40.40;;;;;;20787;6741;275741;-87
2022/07/07 01:02:26;;;;;;;2.80;2.60;;;19.90;40.20;;;;;;20635;6741;308229;-87
2022/07/07 01:05:02;;;;;;;2.70;2.50;;;20.20;39.60;;;;;;21001;6741;117581;-87
2022/07/07 01:07:38;;;;;;;2.83;2.60;;;19.90;39.70;;;;;;20719;6741;299938;-89
2022/07/07 01:10:13;;;;;;;3.00;2.80;;;19.90;39.50;;;;;;20776;6741;305278;-87
2022/07/07 01:12:59;;;;;;;;;;;;;;;;;;;;;
2022/07/07 01:15:24;;;;;;;3.10;2.20;;;20.20;39.10;;;;;;20867;6767;116335;-87
2022/07/07 01:18:00;;;;;;;5.47;2.30;;;19.90;39.50;;;;;;20888;6756;117250;-87
2022/07/07 01:20:35;;;;;;;4.40;2.50;;;19.50;40.20;;;;;;20572;6756;315975;-89
2022/07/07 01:23:11;;;;;;;2.70;2.50;;;19.60;40.30;;;;;;21016;6726;116591;-87
2022/07/07 01:25:46;;;;;;;3.17;2.50;;;19.50;40.60;;;;;;20747;6726;276844;-89
2022/07/07 01:28:22;;;;;;;3.03;2.83;;;19.60;40.70;;;;;;20786;6726;312585;-86
2022/07/07 01:30:58;;;;;;;2.80;2.60;;;19.80;40.40;;;;;;20937;6726;120103;-87
2022/07/07 01:33:33;;;;;;;2.50;2.30;;;19.60;40.60;;;;;;20950;6726;117053;-87
2022/07/07 01:36:11;;;;;;;2.60;2.40;;;19.30;41.20;;;;;;20845;6726;120402;-89
2022/07/07 01:38:47;;;;;;;2.63;2.53;;;19.00;41.70;;;;;;20912;6741;117466;-88
2022/07/07 01:41:22;;;;;;;4.37;3.03;;;18.70;42.20;;;;;;20615;6741;279333;-87
2022/07/07 01:43:58;;;;;;;3.30;3.00;;;18.90;43.20;;;;;;20657;6740;336449;-87
2022/07/07 01:46:34;;;;;;;2.90;2.70;;;19.30;42.80;;;;;;20709;6817;116477;-87
2022/07/07 01:49:09;;;;;;;3.37;3.10;;;19.20;42.80;;;;;;20559;6768;306992;-87
2022/07/07 01:51:45;;;;;;;2.90;2.53;;;19.20;43.10;;;;;;20689;6774;117299;-87
2022/07/07 01:54:20;;;;;;;3.27;2.97;;;19.10;43.00;;;;;;20855;6749;120443;-87
2022/07/07 01:56:56;;;;;;;4.20;2.60;;;18.80;43.50;;;;;;20878;6746;117004;-88
2022/07/07 01:59:32;;;;;;;2.90;2.70;;;18.50;43.80;;;;;;20774;6775;119567;-87
2022/07/07 02:02:07;;;;;;;3.53;2.67;;;18.30;44.10;;;;;;20634;6781;117640;-87
2022/07/07 02:04:43;;;;;;;3.12;2.92;;;18.20;44.50;;;;;;20576;6761;307005;-87
2022/07/07 02:07:19;;;;;;;3.10;2.90;;;18.50;45.00;;;;;;20885;6743;116972;-89
2022/07/07 02:09:54;;;;;;;4.60;3.03;;;18.50;44.60;;;;;;20852;6743;117899;-87
2022/07/07 02:12:29;;;;;;;2.70;2.47;;;18.30;44.70;;;;;;20709;6742;117824;-87
2022/07/07 02:15:06;;;;;;;2.77;2.67;;;18.20;45.00;;;;;;20899;6742;117011;-87
2022/07/07 02:17:42;;;;;;;2.93;2.73;;;18.10;45.10;;;;;;20887;6742;117181;-87
2022/07/07 02:20:18;;;;;;;2.97;2.77;;;18.00;45.20;;;;;;20671;6747;117574;-89
2022/07/07 02:23:03;;;;;;;3.00;2.80;;;18.00;45.20;;;;;;20680;6742;117472;-87
2022/07/07 02:25:29;;;;;;;3.80;3.00;;;17.90;45.10;;;;;;20610;6762;309980;-87
2022/07/07 02:28:05;;;;;;;3.23;2.90;;;18.30;45.00;;;;;;20496;6747;276547;-87
2022/07/07 02:30:40;;;;;;;3.20;3.00;;;18.70;44.30;;;;;;20598;6763;307581;-87
2022/07/07 02:33:16;;;;;;;2.83;2.57;;;18.80;43.70;;;;;;20880;6747;117135;-89
2022/07/07 02:35:53;;;;;;;2.73;2.63;;;18.50;44.10;;;;;;20844;6763;120068;-87
2022/07/07 02:38:28;;;;;;;3.43;3.13;;;18.50;44.10;;;;;;20660;6763;306595;-88
2022/07/07 02:41:04;;;;;;;3.57;2.97;;;18.60;44.10;;;;;;20719;6764;120217;-87
2022/07/07 02:43:40;;;;;;;3.70;2.87;;;18.60;44.20;;;;;;20646;6768;304941;-87
2022/07/07 02:46:15;;;;;;;3.70;2.93;;;18.70;44.10;;;;;;20885;6753;117673;-87
2022/07/07 02:48:51;;;;;;;3.17;2.90;;;18.60;44.00;;;;;;20653;6751;306000;-87
2022/07/07 02:51:26;;;;;;;3.17;2.87;;;18.80;43.90;;;;;;20508;6769;279041;-87
2022/07/07 02:54:02;;;;;;;3.30;3.03;;;19.00;43.60;;;;;;20651;6734;279221;-87
2022/07/07 02:56:37;;;;;;;3.37;3.07;;;19.20;43.40;;;;;;20685;6742;301899;-87
2022/07/07 02:59:13;;;;;;;3.17;2.87;;;19.40;43.40;;;;;;20905;6742;118223;-89
2022/07/07 03:01:49;;;;;;;2.95;2.72;;;19.10;43.00;;;;;;20589;6743;308339;-87
2022/07/07 03:04:24;;;;;;;3.27;3.07;;;19.00;44.00;;;;;;20633;6749;306286;-87
2022/07/07 03:07:00;;;;;;;2.87;2.67;;;19.20;43.80;;;;;;20550;6764;276655;-89
2022/07/07 03:09:50;;;;;;;2.90;2.70;;;19.40;43.70;;;;;;21071;6521;67579;-86
2022/07/07 03:12:15;;;;;;;3.50;3.20;;;19.10;43.90;;;;;;20531;6801;303284;-86
2022/07/07 03:14:41;;;;;;;3.05;2.95;;;19.10;44.30;;;;;;20508;6856;307593;-85
2022/07/07 03:17:07;;;;;;;3.62;3.33;;;19.20;44.40;;;;;;20501;6854;299773;-86
2022/07/07 03:19:34;;;;;;;3.40;3.03;;;19.40;44.20;;;;;;20710;6854;118172;-87
2022/07/07 03:21:58;;;;;;;3.22;2.95;;;19.10;44.30;;;;;;20472;6854;313747;-87
2022/07/07 03:24:25;;;;;;;3.00;2.80;;;18.90;44.70;;;;;;20717;6854;120520;-87
2022/07/07 03:26:50;;;;;;;2.67;2.43;;;18.80;44.60;;;;;;20715;6854;117675;-87
2022/07/07 03:29:16;;;;;;;3.22;2.97;;;18.60;45.10;;;;;;20502;6854;309802;-87
2022/07/07 03:31:41;;;;;;;2.90;2.80;;;18.60;45.30;;;;;;20683;6854;117470;-87
2022/07/07 03:34:07;;;;;;;3.27;3.07;;;18.60;45.20;;;;;;20686;6854;130781;-86
2022/07/07 03:36:33;;;;;;;3.35;3.03;;;18.40;45.50;;;;;;20506;6854;278895;-87
2022/07/07 03:38:58;;;;;;;3.77;3.20;;;18.50;45.70;;;;;;20504;6854;328455;-86
2022/07/07 03:41:24;;;;;;;3.42;3.12;;;18.80;45.40;;;;;;20502;6854;311219;-86
2022/07/07 03:43:50;;;;;;;3.13;2.90;;;19.10;44.90;;;;;;20521;6854;279769;-87
2022/07/07 03:46:16;;;;;;;3.47;2.83;;;19.10;44.80;;;;;;20699;6854;124849;-86
2022/07/07 03:48:41;;;;;;;3.10;2.80;;;18.80;45.00;;;;;;20703;6859;121321;-86
2022/07/07 03:51:07;;;;;;;2.90;2.70;;;18.50;45.60;;;;;;20480;6859;279240;-86
2022/07/07 03:53:32;;;;;;;3.07;2.87;;;18.50;46.00;;;;;;20706;6859;117769;-86
2022/07/07 03:55:58;;;;;;;2.90;2.70;;;18.40;45.90;;;;;;20679;6859;118007;-86
2022/07/07 03:58:23;;;;;;;3.45;3.05;;;18.10;46.00;;;;;;20494;6859;308757;-86
2022/07/07 04:00:49;;;;;;;3.10;2.90;;;18.30;46.10;;;;;;20701;6859;117742;-86
2022/07/07 04:03:15;;;;;;;4.57;2.90;;;18.10;46.10;;;;;;20697;6859;117364;-87
2022/07/07 04:05:41;;;;;;;4.23;3.17;;;18.10;46.10;;;;;;20696;6859;117610;-86
2022/07/07 04:08:06;;;;;;;3.20;2.90;;;17.90;46.30;;;;;;20453;6859;308977;-86
2022/07/07 04:10:32;;;;;;;3.00;2.80;;;18.10;46.10;;;;;;20700;6859;123365;-86
2022/07/07 04:12:57;;;;;;;3.47;2.90;;;18.20;46.00;;;;;;20705;6859;123395;-86
2022/07/07 04:15:23;;;;;;;3.50;3.20;;;18.00;46.10;;;;;;20489;6859;311132;-86
2022/07/07 04:17:49;;;;;;;3.60;3.00;;;18.20;45.70;;;;;;20705;6859;117364;-86
2022/07/07 04:20:16;;;;;;;5.03;3.03;;;18.10;45.60;;;;;;20460;6858;308600;-86
2022/07/07 04:22:41;;;;;;;3.37;3.00;;;18.30;45.20;;;;;;20492;6859;307983;-87
2022/07/07 04:25:07;;;;;;;2.97;2.65;;;18.60;45.10;;;;;;20707;6859;117650;-86
2022/07/07 04:27:33;;;;;;;4.37;3.10;;;18.50;45.10;;;;;;20496;6859;279701;-86
2022/07/07 04:29:58;;;;;;;3.10;2.80;;;18.60;45.00;;;;;;20448;6859;280063;-86
2022/07/07 04:32:24;;;;;;;3.50;3.30;;;18.90;44.60;;;;;;20502;6853;281830;-86
2022/07/07 04:34:49;;;;;;;4.57;3.00;;;19.00;43.60;;;;;;20474;6857;283116;-86
2022/07/07 04:37:15;;;;;;;4.03;2.83;;;19.20;43.60;;;;;;20473;6868;309669;-86
2022/07/07 04:39:40;;;;;;;3.15;2.85;;;19.30;43.10;;;;;;20421;6878;313449;-86
2022/07/07 04:42:07;;;;;;;2.97;2.67;;;19.40;42.90;;;;;;20599;6878;120725;-86
2022/07/07 04:44:33;;;;;;;2.85;2.65;;;19.10;43.30;;;;;;20487;6861;279576;-86
2022/07/07 04:46:59;;;;;;;4.00;3.03;;;19.10;43.20;;;;;;20482;6862;310928;-86
2022/07/07 04:49:24;;;;;;;3.00;2.80;;;19.30;42.90;;;;;;20472;6864;308466;-86
2022/07/07 04:51:50;;;;;;;6.22;2.80;;;19.50;42.40;;;;;;20476;6862;340678;-86
2022/07/07 04:54:16;;;;;;;2.80;2.60;;;19.50;42.30;;;;;;20632;6877;118278;-86
2022/07/07 04:56:41;;;;;;;4.20;2.67;;;19.30;42.80;;;;;;20481;6862;335499;-86
2022/07/07 04:59:09;;;;;;;4.80;2.37;;;19.10;43.20;;;;;;20577;6878;117825;-86
2022/07/07 05:01:36;;;;;;;3.00;2.70;;;18.80;43.60;;;;;;20696;6858;117443;-86
2022/07/07 05:04:01;;;;;;;3.53;2.70;;;18.80;43.60;;;;;;20630;6877;117993;-84
2022/07/07 05:06:27;;;;;;;2.93;2.73;;;18.60;44.00;;;;;;20695;6863;117965;-83
2022/07/07 05:08:52;;;;;;;3.73;2.60;;;18.50;44.30;;;;;;20696;6870;117817;-83
2022/07/07 05:11:18;;;;;;;3.10;2.80;;;18.40;44.50;;;;;;20482;6867;290956;-85
2022/07/07 05:13:43;;;;;;;2.37;2.28;;;18.60;43.80;;;;;;20728;6862;123193;-79
2022/07/07 05:16:09;;;;;;;4.00;2.40;;;18.70;43.80;;;;;;20704;6862;122067;-84
2022/07/07 05:18:34;;;;;;;3.37;2.78;;;18.60;44.10;;;;;;20713;6862;117435;-83
2022/07/07 05:21:00;;;;;;;2.53;2.33;;;18.40;44.30;;;;;;20692;6862;118276;-84
2022/07/07 05:23:26;;;;;;;2.70;2.50;;;18.20;44.60;;;;;;20484;6862;279183;-84
2022/07/07 05:25:51;;;;;;;3.00;2.80;;;18.50;44.90;;;;;;20496;6862;308311;-83
2022/07/07 05:28:17;;;;;;;2.80;2.60;;;18.90;44.60;;;;;;20683;6862;119124;-83
2022/07/07 05:30:42;;;;;;;3.20;2.70;;;18.90;44.60;;;;;;20703;6861;118187;-83
2022/07/07 05:33:08;;;;;;;3.80;2.80;;;18.90;44.90;;;;;;20494;6862;280034;-82
2022/07/07 05:35:34;;;;;;;2.87;2.67;;;19.10;44.10;;;;;;20698;6862;120674;-83
2022/07/07 05:37:59;;;;;;;3.13;2.90;;;19.10;43.70;;;;;;20430;6861;280190;-85
2022/07/07 05:40:25;;;;;;;3.83;2.80;;;19.30;43.90;;;;;;20707;6861;119673;-83
2022/07/07 05:42:50;;;;;;;2.70;2.50;;;19.20;43.90;;;;;;20707;6858;117620;-84
2022/07/07 05:45:16;;;;;;;2.90;2.70;;;19.10;44.20;;;;;;20705;6858;117288;-82
2022/07/07 05:47:41;;;;;;;4.07;2.77;;;19.00;44.50;;;;;;20447;6858;279980;-84
2022/07/07 05:50:07;;;;;;;2.70;2.53;;;19.30;44.10;;;;;;20634;6872;120739;-84
2022/07/07 05:52:32;;;;;;;2.90;2.70;;;19.30;43.90;;;;;;20501;6857;280418;-85
2022/07/07 05:54:59;;;;;;;2.83;2.53;;;19.90;42.30;;;;;;20510;6857;290226;-84
2022/07/07 05:57:24;;;;;;;3.37;2.70;;;19.80;42.20;;;;;;20709;6857;117796;-84
2022/07/07 05:59:50;;;;;;;2.47;2.27;;;19.80;42.50;;;;;;20686;6867;117291;-83
2022/07/07 06:02:15;;;;;;;2.80;2.60;;;19.50;42.80;;;;;;20456;6867;278702;-83
2022/07/07 06:04:41;;;;;;;3.05;2.50;;;19.70;42.60;;;;;;20685;6867;117960;-84
2022/07/07 06:07:07;;;;;;;3.30;2.77;;;19.60;42.80;;;;;;20477;6867;279143;-84
2022/07/07 06:09:32;;;;;;;2.93;2.60;;;19.90;43.00;;;;;;20474;6867;337514;-84
2022/07/07 06:11:58;;;;;;;2.97;2.62;;;20.40;42.60;;;;;;20455;6867;279559;-84
2022/07/07 06:14:23;;;;;;;4.60;2.70;;;20.80;41.50;;;;;;20472;6867;338645;-84
2022/07/07 06:16:49;;;;;;;3.65;2.60;;;21.20;41.30;;;;;;20477;6867;278271;-85
2022/07/07 06:19:15;;;;;;;3.53;2.50;;;21.60;41.30;;;;;;20678;6867;117631;-84
2022/07/07 06:21:41;;;;;;;3.17;2.87;;;21.60;41.30;;;;;;20657;6873;116513;-85
2022/07/07 06:24:06;;;;;;;4.95;2.40;;;21.50;41.80;;;;;;20677;6857;117648;-85
2022/07/07 06:26:32;;;;;;;2.80;2.60;;;21.50;42.10;;;;;;20739;6849;119460;-84
2022/07/07 06:28:57;;;;;;;3.40;2.30;;;21.50;42.20;;;;;;20474;6864;312844;-84
2022/07/07 06:31:24;;;;;;;6.10;2.57;;;22.00;41.00;;;;;;20739;6849;117552;-88
2022/07/07 06:33:50;;;;;;;1.90;1.80;;;22.30;41.00;;;;;;20694;6864;117501;-85
2022/07/07 06:36:16;;;;;;;5.00;2.27;;;22.60;39.60;;;;;;20502;6849;315325;-84
2022/07/07 06:38:42;;;;;;;2.63;2.30;;;22.60;39.50;;;;;;20733;6849;120021;-85
2022/07/07 06:41:07;;;;;;;6.27;2.60;;;22.80;39.80;;;;;;20691;6864;117477;-84
2022/07/07 06:43:33;;;;;;;5.95;2.20;;;23.00;40.10;;;;;;20743;6847;117516;-83
2022/07/07 06:45:58;;;;;;;3.83;2.20;;;23.40;40.20;;;;;;20446;6864;280065;-84
2022/07/07 06:48:24;;;;;;;4.87;2.40;;;24.10;38.20;;;;;;20717;6858;117499;-82
2022/07/07 06:50:49;;;;;;;2.73;2.13;;;24.70;38.50;;;;;;20694;6858;117751;-82
2022/07/07 06:53:16;;;;;;;3.00;2.20;;;25.40;37.90;;;;;;20691;6858;117589;-84
2022/07/07 06:55:41;;;;;;;3.50;2.33;;;25.40;37.90;;;;;;20709;6858;118234;-84
2022/07/07 06:58:07;;;;;;;2.33;2.10;;;25.80;37.40;;;;;;20477;6858;314387;-84
2022/07/07 07:00:32;;;;;;;4.53;2.20;;;26.60;34.60;;;;;;20498;6858;308829;-83
2022/07/07 07:02:59;;;;;;;3.37;1.85;;;28.00;31.70;;;;;;20497;6858;309862;-84
2022/07/07 07:05:24;;;;;;;2.75;2.03;;;28.00;31.70;;;;;;20494;6858;313579;-84
2022/07/07 07:07:50;;;;;;;3.53;2.20;;;28.40;30.90;;;;;;20508;6858;283233;-84
2022/07/07 07:10:15;;;;;;;2.20;2.07;;;28.80;30.70;;;;;;20706;6858;117622;-82
2022/07/07 07:12:41;;;;;;;2.80;2.07;;;28.70;31.10;;;;;;20747;6858;117635;-83
2022/07/07 07:15:07;;;;;;;3.90;2.10;;;28.40;31.30;;;;;;20495;6858;281701;-84
2022/07/07 07:17:32;;;;;;;4.10;2.63;;;28.50;30.80;;;;;;20492;6858;309510;-83
2022/07/07 07:19:58;;;;;;;6.62;2.00;;;28.80;30.30;;;;;;20469;6858;338279;-83
2022/07/07 07:22:24;;;;;;;2.30;1.87;;;29.00;30.00;;;;;;20700;6858;117826;-84
2022/07/07 07:24:49;;;;;;;3.97;1.87;;;28.40;31.00;;;;;;20712;6858;117380;-82
2022/07/07 07:27:15;;;;;;;2.10;1.80;;;28.40;31.00;;;;;;20494;6858;312791;-83
2022/07/07 07:29:41;;;;;;;3.53;1.77;;;28.20;30.90;;;;;;20699;6858;117515;-82
2022/07/07 07:32:06;;;;;;;3.97;1.83;;;27.80;31.50;;;;;;20471;6858;309206;-83
2022/07/07 07:34:32;;;;;;;3.07;1.87;;;27.70;32.40;;;;;;20496;6858;308670;-83
2022/07/07 07:36:58;;;;;;;2.62;2.08;;;27.70;32.00;;;;;;20499;6858;282130;-84
2022/07/07 07:39:23;;;;;;;5.35;2.10;;;27.70;32.10;;;;;;20502;6858;291234;-84
2022/07/07 07:41:49;;;;;;;3.20;2.03;;;27.50;32.00;;;;;;20494;6858;339817;-83
2022/07/07 07:45:09;;;;;;;2.33;1.90;;;27.40;31.80;;;;;;20689;6858;117637;-82
2022/07/07 07:46:40;;;;;;;3.97;2.37;;;26.90;32.40;;;;;;20630;6858;116477;-83
2022/07/07 07:49:06;;;;;;;3.10;1.90;;;26.40;33.30;;;;;;20704;6858;117595;-83
2022/07/07 07:51:34;;;;;;;4.60;2.13;;;26.00;33.80;;;;;;20708;6858;118099;-83
2022/07/07 07:53:59;;;;;;;6.07;2.10;;;25.50;34.30;;;;;;20691;6857;117597;-83
2022/07/07 07:56:25;;;;;;;2.87;2.20;;;25.20;35.00;;;;;;20509;6858;338213;-81
2022/07/07 07:58:51;;;;;;;2.30;2.10;;;25.30;35.50;;;;;;20511;6858;278719;-84
2022/07/07 08:01:18;;;;;;;2.87;2.10;;;25.60;35.30;;;;;;20710;6858;121725;-86
2022/07/07 08:03:43;;;;;;;3.47;2.13;;;25.40;35.30;;;;;;20501;6858;308780;-84
2022/07/07 08:06:09;;;;;;;2.05;1.92;;;25.30;36.10;;;;;;20692;6858;118541;-84
2022/07/07 08:08:34;;;;;;;2.90;2.00;;;25.10;36.30;;;;;;20710;6858;123805;-83
2022/07/07 08:11:01;;;;;;;5.03;1.80;;;24.70;37.10;;;;;;20665;6858;116476;-84
2022/07/07 08:13:26;;;;;;;5.57;2.03;;;24.70;37.10;;;;;;20480;6858;280112;-83
2022/07/07 08:15:52;;;;;;;3.65;2.15;;;24.90;37.40;;;;;;20492;6858;309136;-83
2022/07/07 08:18:18;;;;;;;4.50;1.98;;;25.40;37.20;;;;;;20680;6858;118027;-83
2022/07/07 08:20:44;;;;;;;4.27;1.93;;;25.30;37.10;;;;;;20700;6858;117611;-84
2022/07/07 08:23:09;;;;;;;2.40;2.20;;;25.20;37.40;;;;;;20494;6858;309093;-84
2022/07/07 08:25:35;;;;;;;2.42;2.22;;;25.40;37.60;;;;;;20491;6858;309277;-84
2022/07/07 08:28:01;;;;;;;2.10;1.83;;;25.70;36.60;;;;;;20685;6858;119391;-84
2022/07/07 08:30:26;;;;;;;2.00;1.90;;;25.70;36.60;;;;;;20702;6858;117603;-84
2022/07/07 08:32:51;;;;;;;3.23;1.80;;;25.40;36.80;;;;;;20705;6858;117397;-84
2022/07/07 08:35:17;;;;;;;2.28;1.83;;;25.20;37.00;;;;;;20485;6858;309026;-84
2022/07/07 08:37:43;;;;;;;5.00;2.10;;;25.40;37.30;;;;;;20507;6858;320935;-84
2022/07/07 08:40:08;;;;;;;2.22;2.03;;;25.60;37.60;;;;;;20466;6858;311651;-84
2022/07/07 08:42:34;;;;;;;4.53;2.10;;;25.80;37.20;;;;;;20492;6858;309561;-84
2022/07/07 08:44:59;;;;;;;3.20;1.97;;;25.90;36.70;;;;;;20709;6858;119414;-84
2022/07/07 08:47:25;;;;;;;2.83;2.10;;;26.00;37.50;;;;;;20717;6858;123212;-84
2022/07/07 08:49:51;;;;;;;3.40;2.00;;;26.10;37.80;;;;;;20698;6858;117414;-84
2022/07/07 08:52:16;;;;;;;4.05;1.80;;;26.30;37.30;;;;;;20497;6858;309103;-84
2022/07/07 08:54:43;;;;;;;5.97;1.70;;;26.50;36.60;;;;;;20728;6858;117304;-85
2022/07/07 08:57:09;;;;;;;1.93;1.83;;;26.50;36.10;;;;;;20720;6858;117463;-84
2022/07/07 08:59:34;;;;;;;3.73;2.00;;;26.20;36.30;;;;;;20508;6858;338797;-85
2022/07/07 09:02:00;;;;;;;3.33;1.77;;;26.20;36.70;;;;;;20685;6858;127705;-84
2022/07/07 09:04:26;;;;;;;2.40;1.70;;;25.70;36.60;;;;;;20718;6858;120562;-85
2022/07/07 09:06:55;;;;;;;2.55;1.67;;;25.70;36.60;;;;;;20504;6857;307106;-84
2022/07/07 09:09:43;;;;;;;3.20;2.00;;;25.60;36.60;;;;;;20483;6858;331268;-84
2022/07/07 09:12:10;;;;;;;2.17;1.90;;;25.80;36.70;;;;;;20693;6858;119432;-84
2022/07/07 09:14:37;;;;;;;1.80;1.70;;;25.00;37.10;;;;;;20713;6858;121959;-85
2022/07/07 09:17:03;;;;;;;2.40;2.00;;;25.00;37.00;;;;;;20711;6858;117264;-85
2022/07/07 09:19:29;;;;;;;2.27;2.03;;;24.80;37.40;;;;;;20661;6858;117343;-84
2022/07/07 09:21:54;;;;;;;2.40;2.20;;;24.60;37.80;;;;;;20476;6858;311797;-84
2022/07/07 09:24:20;;;;;;;2.22;2.05;;;24.90;38.00;;;;;;20493;6858;305281;-84
2022/07/07 09:26:46;;;;;;;2.20;2.00;;;25.50;37.60;;;;;;20706;6858;117383;-84
2022/07/07 09:29:15;;;;;;;1.90;1.80;;;25.40;37.60;;;;;;20493;6858;337823;-88
2022/07/07 09:31:53;;;;;;;2.03;1.85;;;25.70;37.20;;;;;;20487;6858;309083;-86
2022/07/07 09:34:19;;;;;;;2.00;1.90;;;26.00;36.70;;;;;;20679;6858;117875;-84
2022/07/07 09:39:46;;;;;;;2.33;1.80;;;25.90;36.50;;;;;;20505;6858;279916;-84
2022/07/07 09:42:31;;;;;;;4.33;1.77;;;26.10;36.60;;;;;;20464;6858;278288;-84
2022/07/07 09:45:04;;;;;;;2.33;2.07;;;26.40;36.60;;;;;;20503;6858;308811;-87
2022/07/07 09:47:30;;;;;;;3.73;1.90;;;26.70;35.90;;;;;;20491;6858;310960;-85
2022/07/07 09:49:59;;;;;;;3.83;2.10;;;26.60;35.30;;;;;;20472;6858;308583;-88
2022/07/07 09:52:24;;;;;;;2.90;2.17;;;26.60;35.90;;;;;;20485;6858;310167;-85
2022/07/07 09:54:50;;;;;;;3.63;2.07;;;26.50;35.80;;;;;;20744;6858;117315;-85
2022/07/07 09:57:16;;;;;;;2.27;2.10;;;26.10;36.00;;;;;;20769;6858;116446;-84
2022/07/07 09:59:43;;;;;;;2.15;2.00;;;25.50;37.20;;;;;;20547;6858;338232;-84
2022/07/07 10:02:19;;;;;;;3.03;2.20;;;25.60;37.30;;;;;;20693;6858;122427;-84
2022/07/07 10:04:44;;;;;;;2.30;2.10;;;25.40;37.20;;;;;;20487;6858;308144;-84
2022/07/07 10:07:10;;;;;;;7.35;2.30;;;25.40;37.80;;;;;;20755;6858;117406;-84
2022/07/07 10:09:37;;;;;;;3.40;2.03;;;25.20;37.70;;;;;;20706;6858;117368;-83
2022/07/07 10:12:03;;;;;;;2.80;2.10;;;24.90;38.00;;;;;;20473;6858;308766;-85
2022/07/07 10:14:28;;;;;;;2.10;2.00;;;25.00;38.30;;;;;;20702;6858;117619;-84
2022/07/07 10:16:54;;;;;;;3.12;2.22;;;24.90;38.20;;;;;;20471;6856;339133;-85
2022/07/07 10:19:23;;;;;;;2.40;2.30;;;24.90;38.50;;;;;;20486;6857;309176;-84
2022/07/07 10:21:48;;;;;;;2.40;2.20;;;25.10;38.60;;;;;;20476;6858;278750;-84
2022/07/07 10:24:14;;;;;;;2.80;2.10;;;25.30;38.10;;;;;;20472;6858;282587;-84
2022/07/07 10:26:42;;;;;;;2.28;2.08;;;25.40;38.30;;;;;;20490;6858;298291;-84
2022/07/07 10:29:08;;;;;;;2.93;2.10;;;25.60;38.00;;;;;;20689;6858;120244;-84
2022/07/07 10:31:34;;;;;;;3.20;2.20;;;25.40;38.00;;;;;;20695;6858;117307;-84
2022/07/07 10:34:10;;;;;;;3.87;2.23;;;24.80;38.50;;;;;;20675;6858;118064;-84
2022/07/07 10:36:51;;;;;;;3.73;2.50;;;24.70;38.40;;;;;;20698;6858;117938;-84
2022/07/07 10:39:17;;;;;;;2.40;2.20;;;24.50;38.80;;;;;;20494;6858;308689;-84
2022/07/07 10:42:03;;;;;;;2.58;2.03;;;24.70;39.60;;;;;;20486;6858;306858;-84
2022/07/07 10:44:29;;;;;;;1.97;1.77;;;24.90;39.00;;;;;;20704;6858;117934;-84
2022/07/07 10:46:58;;;;;;;2.40;2.10;;;24.90;38.90;;;;;;20708;6858;117463;-84
2022/07/07 10:49:41;;;;;;;2.07;1.97;;;24.70;39.20;;;;;;20457;6858;307737;-84
2022/07/07 10:52:13;;;;;;;2.10;1.90;;;24.90;39.10;;;;;;20419;6858;308754;-85
2022/07/07 10:54:47;;;;;;;2.30;2.07;;;25.20;38.80;;;;;;20694;6858;119704;-84
2022/07/07 10:57:11;;;;;;;2.10;2.00;;;25.30;38.70;;;;;;20487;6858;330116;-89
2022/07/07 11:00:01;;;;;;;2.87;2.10;;;25.50;38.70;;;;;;20485;6858;281467;-84
2022/07/07 11:02:31;;;;;;;2.40;1.93;;;25.80;38.10;;;;;;20701;6858;118025;-86
2022/07/07 11:04:57;;;;;;;2.13;1.87;;;25.70;37.60;;;;;;20478;6858;308704;-84
2022/07/07 11:07:24;;;;;;;2.50;2.30;;;25.80;37.20;;;;;;20693;6858;117916;-85
2022/07/07 11:10:05;;;;;;;2.67;2.20;;;25.80;37.30;;;;;;20484;6858;310639;-85
2022/07/07 11:12:34;;;;;;;1.77;1.67;;;25.90;37.60;;;;;;20695;6858;117377;-85
2022/07/07 11:15:22;;;;;;;2.30;1.83;;;26.00;37.60;;;;;;20701;6858;117335;-85
2022/07/07 11:18:01;;;;;;;2.20;2.00;;;25.80;37.90;;;;;;20699;6858;120593;-83
2022/07/07 11:20:27;;;;;;;2.30;2.10;;;25.70;38.10;;;;;;20478;6858;340776;-84
2022/07/07 11:22:52;;;;;;;2.37;2.12;;;25.80;38.30;;;;;;20486;6858;309104;-84
2022/07/07 11:25:18;;;;;;;2.03;1.93;;;26.10;37.80;;;;;;20705;6858;117684;-85
2022/07/07 11:27:43;;;;;;;5.27;2.20;;;26.00;37.60;;;;;;20709;6858;116487;-85
2022/07/07 11:30:09;;;;;;;3.03;2.00;;;25.60;38.10;;;;;;20684;6856;117785;-85
2022/07/07 11:32:38;;;;;;;4.50;2.20;;;25.40;38.70;;;;;;20526;6858;309692;-85
2022/07/07 11:35:06;;;;;;;2.73;2.27;;;25.20;38.60;;;;;;20723;6858;70398;-85
2022/07/07 11:37:31;;;;;;;3.10;2.10;;;25.20;38.60;;;;;;20536;6858;291163;-83
2022/07/07 11:39:58;;;;;;;2.08;1.95;;;25.40;37.60;;;;;;20478;6858;309486;-84
2022/07/07 11:42:23;;;;;;;3.40;2.00;;;25.40;37.60;;;;;;20710;6858;120431;-84
2022/07/07 11:44:50;;;;;;;2.97;2.13;;;24.80;38.40;;;;;;20690;6858;119229;-85
2022/07/07 11:47:18;;;;;;;2.93;1.93;;;24.80;38.40;;;;;;20512;6858;278109;-84
2022/07/07 11:49:43;;;;;;;1.87;1.77;;;24.80;39.00;;;;;;20687;6858;117811;-84
2022/07/07 11:52:13;;;;;;;5.47;1.90;;;24.60;38.90;;;;;;20684;6858;117759;-84
2022/07/07 11:54:45;;;;;;;4.17;2.20;;;24.30;39.10;;;;;;20700;6858;117566;-84
2022/07/07 11:57:11;;;;;;;3.13;1.80;;;24.00;39.40;;;;;;20699;6858;118430;-84
2022/07/07 11:59:36;;;;;;;2.30;1.83;;;23.90;40.00;;;;;;20497;6858;308745;-84
2022/07/07 12:02:02;;;;;;;3.67;2.00;;;24.00;41.20;;;;;;20472;6858;308303;-85
2022/07/07 12:04:28;;;;;;;2.07;1.90;;;24.70;39.40;;;;;;20423;6858;314943;-84
2022/07/07 12:06:54;;;;;;;3.03;1.63;;;24.70;39.30;;;;;;20710;6858;121759;-84
2022/07/07 12:09:23;;;;;;;3.07;1.70;;;24.60;39.30;;;;;;20497;6858;310481;-84
2022/07/07 12:11:48;;;;;;;3.87;1.70;;;24.80;39.90;;;;;;20706;6858;117218;-85
2022/07/07 12:14:14;;;;;;;1.70;1.60;;;24.60;40.00;;;;;;20693;6858;117149;-86
2022/07/07 12:16:48;;;;;;;1.83;1.73;;;24.60;40.00;;;;;;20710;6858;117785;-88
2022/07/07 12:19:14;;;;;;;2.37;1.60;;;24.50;39.20;;;;;;20459;6858;284248;-87
2022/07/07 12:21:46;;;;;;;2.03;1.60;;;24.50;39.20;;;;;;20704;6858;117592;-88
2022/07/07 12:24:11;;;;;;;2.37;1.80;;;24.60;39.20;;;;;;20665;6858;123294;-88
2022/07/07 12:26:48;;;;;;;3.27;1.70;;;24.50;39.20;;;;;;20689;6858;117541;-88
2022/07/07 12:29:11;;;;;;;1.73;1.62;;;24.50;39.50;;;;;;20496;6858;312136;-88
2022/07/07 12:31:37;;;;;;;2.87;1.43;;;24.80;39.30;;;;;;20710;6858;118146;-87
2022/07/07 12:34:13;;;;;;;2.13;1.60;;;24.90;39.10;;;;;;20478;6858;280321;-86
2022/07/07 12:36:40;;;;;;;1.70;1.60;;;25.10;38.70;;;;;;20488;6858;280833;-87
2022/07/07 12:39:05;;;;;;;1.80;1.70;;;25.40;38.50;;;;;;20703;6858;117593;-89
2022/07/07 12:41:32;;;;;;;2.15;2.00;;;25.40;38.50;;;;;;20703;6857;117787;-87
2022/07/07 12:44:26;;;;;;;1.73;1.63;;;25.20;38.70;;;;;;20686;6858;117356;-86
2022/07/07 12:46:49;;;;;;;1.30;1.30;;;25.10;39.00;;;;;;20694;6858;117374;-86
2022/07/07 12:49:15;;;;;;;1.50;1.40;;;25.00;39.20;;;;;;20701;6858;120317;-88